Time;durP1;ratioP1;P1;durP2;ratioP2;P2;SDS_P1;SDS_P2;PMS_P1;PMS_P2;Temp;Humidity;BMP_temperature;BMP_pressure;BME280_temperature;BME280_humidity;BME280_pressure;Samples;Min_cycle;Max_cycle;Signal;HPM_P1;HPM_P2
2024/02/11 00:01:55;;;;;;;11.98;7.35;;;9.80;99.90;;;;;;5033371;28;20032;-88
2024/02/11 00:04:21;;;;;;;13.20;6.90;;;9.80;99.90;;;;;;5031172;28;20491;-87
2024/02/11 00:06:46;;;;;;;15.27;7.07;;;9.80;99.90;;;;;;5027509;28;20052;-87
2024/02/11 00:09:12;;;;;;;14.57;7.10;;;9.80;99.90;;;;;;5028122;28;20018;-87
2024/02/11 00:11:38;;;;;;;12.50;6.90;;;9.80;99.90;;;;;;5031160;28;20044;-87
2024/02/11 00:14:03;;;;;;;14.68;6.80;;;9.80;99.90;;;;;;5035576;28;20021;-87
2024/02/11 00:16:30;;;;;;;14.45;6.55;;;9.80;99.90;;;;;;5035957;28;20591;-88
2024/02/11 00:18:56;;;;;;;13.20;6.95;;;9.80;99.90;;;;;;5030760;28;20013;-87
2024/02/11 00:21:23;;;;;;;15.65;7.15;;;9.80;99.90;;;;;;5024368;28;20044;-87
2024/02/11 00:23:49;;;;;;;13.65;6.72;;;9.80;99.90;;;;;;5033518;28;20049;-86
2024/02/11 00:26:14;;;;;;;13.20;7.15;;;9.80;99.90;;;;;;5030717;28;20022;-88
2024/02/11 00:28:41;;;;;;;13.43;7.32;;;9.80;99.90;;;;;;5035066;28;20072;-87
2024/02/11 00:31:07;;;;;;;13.90;6.97;;;9.80;99.90;;;;;;5031575;28;20465;-87
2024/02/11 00:33:32;;;;;;;12.52;6.53;;;9.80;99.90;;;;;;5038158;28;20082;-87
2024/02/11 00:35:59;;;;;;;13.25;7.07;;;9.80;99.90;;;;;;5040706;28;20025;-88
2024/02/11 00:38:30;;;;;;;12.20;6.85;;;9.80;99.90;;;;;;5028907;28;20032;-87
2024/02/11 00:40:56;;;;;;;14.82;7.05;;;9.80;99.90;;;;;;5030122;28;20540;-87
2024/02/11 00:43:21;;;;;;;14.30;6.53;;;9.80;99.90;;;;;;5029834;28;20057;-89
2024/02/11 00:45:47;;;;;;;11.15;6.93;;;9.80;99.90;;;;;;5029022;28;20096;-87
2024/02/11 00:48:13;;;;;;;10.48;6.20;;;9.80;99.90;;;;;;5027898;28;20022;-87
2024/02/11 00:50:38;;;;;;;14.27;7.13;;;9.80;99.90;;;;;;5025434;28;20487;-88
2024/02/11 00:53:04;;;;;;;15.25;6.70;;;9.80;99.90;;;;;;5023998;28;20075;-89
2024/02/11 00:55:31;;;;;;;10.70;6.68;;;9.80;99.90;;;;;;5033039;28;20053;-90
2024/02/11 00:57:57;;;;;;;11.63;6.30;;;9.80;99.90;;;;;;5024812;28;20018;-88
2024/02/11 01:00:22;;;;;;;10.55;6.38;;;9.80;99.90;;;;;;5021837;28;20422;-87
2024/02/11 01:02:49;;;;;;;14.10;6.47;;;9.80;99.90;;;;;;5021054;28;20022;-88
2024/02/11 01:05:15;;;;;;;9.95;6.53;;;9.80;99.90;;;;;;5025415;28;20026;-88
2024/02/11 01:07:40;;;;;;;15.35;6.28;;;9.80;99.90;;;;;;5030286;28;20018;-86
2024/02/11 01:10:14;;;;;;;15.18;6.97;;;9.80;99.90;;;;;;5029305;28;20021;-87
2024/02/11 01:12:41;;;;;;;9.80;6.50;;;9.80;99.90;;;;;;5025764;28;20101;-88
2024/02/11 01:15:08;;;;;;;13.95;6.65;;;9.80;99.90;;;;;;5030409;28;20578;-86
2024/02/11 01:17:33;;;;;;;14.43;6.15;;;9.80;99.90;;;;;;5031650;28;20025;-88
2024/02/11 01:19:59;;;;;;;12.80;6.25;;;9.80;99.90;;;;;;5033308;28;20476;-87
2024/02/11 01:22:24;;;;;;;14.23;6.35;;;9.80;99.90;;;;;;5054974;28;20020;-89
2024/02/11 01:24:50;;;;;;;12.85;6.72;;;9.80;99.90;;;;;;5033404;28;20047;-87
2024/02/11 01:27:16;;;;;;;16.65;7.45;;;9.80;99.90;;;;;;5027481;28;20022;-88
2024/02/11 01:29:41;;;;;;;11.20;6.50;;;9.80;99.90;;;;;;5014698;28;20017;-88
2024/02/11 01:32:09;;;;;;;11.43;6.55;;;9.80;99.90;;;;;;5019968;28;20017;-87
2024/02/11 01:34:35;;;;;;;12.43;6.80;;;9.80;99.90;;;;;;5031522;28;20044;-86
2024/02/11 01:37:00;;;;;;;13.63;5.80;;;9.80;99.90;;;;;;5028105;28;20471;-87
2024/02/11 01:39:26;;;;;;;12.73;6.97;;;9.80;99.90;;;;;;5015862;28;20021;-87
2024/02/11 01:41:52;;;;;;;13.40;6.65;;;9.80;99.90;;;;;;5027432;28;20033;-86
2024/02/11 01:44:18;;;;;;;14.60;6.57;;;9.80;99.90;;;;;;5030131;28;20110;-87
2024/02/11 01:46:45;;;;;;;15.95;6.82;;;9.80;99.90;;;;;;5029857;28;20025;-88
2024/02/11 01:49:11;;;;;;;11.50;5.65;;;9.80;99.90;;;;;;5026929;28;20045;-87
2024/02/11 01:51:44;;;;;;;11.23;6.05;;;9.80;99.90;;;;;;5029220;28;20029;-86
2024/02/11 01:54:14;;;;;;;13.45;7.05;;;9.80;99.90;;;;;;5032287;28;20032;-88
2024/02/11 01:56:40;;;;;;;13.18;6.10;;;9.80;99.90;;;;;;5021485;28;20022;-87
2024/02/11 01:59:06;;;;;;;13.35;6.50;;;9.80;99.90;;;;;;5020082;28;20025;-87
2024/02/11 02:01:33;;;;;;;12.75;6.80;;;9.80;99.90;;;;;;5026993;28;20044;-87
2024/02/11 02:03:59;;;;;;;11.65;6.47;;;9.80;99.90;;;;;;5021305;28;20595;-87
2024/02/11 02:06:25;;;;;;;12.20;6.57;;;9.80;99.90;;;;;;5028877;28;20057;-86
2024/02/11 02:08:52;;;;;;;18.38;6.60;;;9.80;99.90;;;;;;5028765;28;20044;-87
2024/02/11 02:11:18;;;;;;;12.77;6.72;;;9.80;99.90;;;;;;5027671;28;20451;-88
2024/02/11 02:13:44;;;;;;;12.07;6.05;;;9.80;99.90;;;;;;5025414;28;20021;-87
2024/02/11 02:16:10;;;;;;;12.20;5.55;;;9.80;99.90;;;;;;5029473;28;20029;-87
2024/02/11 02:18:36;;;;;;;10.68;5.57;;;9.80;99.90;;;;;;5021439;28;20053;-86
2024/02/11 02:21:04;;;;;;;14.70;5.60;;;9.80;99.90;;;;;;5034944;28;20729;-86
2024/02/11 02:23:30;;;;;;;12.60;6.47;;;9.80;99.90;;;;;;5035075;28;20110;-87
2024/02/11 02:25:57;;;;;;;10.90;5.82;;;9.80;99.90;;;;;;5018264;28;20526;-88
2024/02/11 02:28:22;;;;;;;9.85;6.50;;;9.80;99.90;;;;;;5028435;28;20021;-86
2024/02/11 02:30:48;;;;;;;10.43;6.07;;;9.80;99.90;;;;;;5026039;28;20026;-87
2024/02/11 02:33:13;;;;;;;9.38;5.72;;;9.80;99.90;;;;;;5022774;28;20507;-87
2024/02/11 02:35:39;;;;;;;12.50;6.35;;;9.80;99.90;;;;;;5022522;28;20014;-86
2024/02/11 02:38:05;;;;;;;10.73;5.60;;;9.80;99.90;;;;;;5027163;28;20108;-86
2024/02/11 02:40:31;;;;;;;12.68;6.57;;;9.80;99.90;;;;;;5024251;28;20504;-86
2024/02/11 02:42:57;;;;;;;11.63;6.15;;;9.80;99.90;;;;;;5026658;28;20032;-86
2024/02/11 02:45:22;;;;;;;12.25;6.07;;;9.80;99.90;;;;;;5030457;28;20022;-87
2024/02/11 02:47:48;;;;;;;11.18;6.40;;;9.80;99.90;;;;;;5020413;28;20535;-87
2024/02/11 02:50:17;;;;;;;10.10;5.65;;;9.80;99.90;;;;;;5031996;28;20029;-85
2024/02/11 02:52:44;;;;;;;11.48;6.15;;;9.80;99.90;;;;;;5025491;28;20041;-87
2024/02/11 02:55:10;;;;;;;10.88;6.20;;;9.80;99.90;;;;;;5032400;28;20818;-88
2024/02/11 02:57:36;;;;;;;11.43;7.13;;;9.80;99.90;;;;;;5027827;28;20033;-86
2024/02/11 03:00:08;;;;;;;14.02;6.57;;;9.80;99.90;;;;;;5027466;28;20087;-87
2024/02/11 03:02:36;;;;;;;10.38;6.63;;;9.80;99.90;;;;;;5033403;28;20056;-86
2024/02/11 03:05:03;;;;;;;10.27;5.88;;;9.80;99.90;;;;;;5028364;28;20032;-87
2024/02/11 03:07:29;;;;;;;11.65;6.20;;;9.80;99.90;;;;;;5020613;28;20060;-89
2024/02/11 03:09:55;;;;;;;13.57;6.13;;;9.80;99.90;;;;;;5026561;28;20061;-87
2024/02/11 03:12:21;;;;;;;12.57;6.40;;;9.80;99.90;;;;;;5034706;28;20453;-86
2024/02/11 03:14:48;;;;;;;11.68;5.95;;;9.80;99.90;;;;;;5025626;28;20018;-87
2024/02/11 03:17:14;;;;;;;11.98;6.28;;;9.80;99.90;;;;;;5031770;28;20030;-87
2024/02/11 03:19:43;;;;;;;9.63;6.07;;;9.80;99.90;;;;;;5027707;28;20145;-86
2024/02/11 03:22:12;;;;;;;11.50;5.88;;;9.80;99.90;;;;;;5029510;28;20025;-86
2024/02/11 03:24:38;;;;;;;9.75;5.05;;;9.80;99.90;;;;;;5036796;28;20083;-87
2024/02/11 03:27:04;;;;;;;11.05;6.25;;;9.80;99.90;;;;;;5028492;28;20029;-87
2024/02/11 03:29:30;;;;;;;10.85;5.85;;;9.80;99.90;;;;;;5035011;28;20021;-87
2024/02/11 03:31:55;;;;;;;11.13;6.05;;;9.80;99.90;;;;;;5027705;28;20021;-87
2024/02/11 03:34:21;;;;;;;10.10;5.53;;;9.80;99.90;;;;;;5031975;28;20033;-86
2024/02/11 03:36:46;;;;;;;8.70;5.47;;;9.80;99.90;;;;;;5026456;28;20028;-85
2024/02/11 03:39:12;;;;;;;13.25;6.55;;;9.80;99.90;;;;;;5036356;28;20076;-88
2024/02/11 03:41:38;;;;;;;10.30;5.93;;;9.80;99.90;;;;;;5030704;28;20042;-86
2024/02/11 03:44:04;;;;;;;9.20;5.82;;;9.80;99.90;;;;;;5031950;28;20022;-88
2024/02/11 03:46:30;;;;;;;12.10;6.18;;;9.80;99.90;;;;;;5025531;28;20032;-87
2024/02/11 03:48:58;;;;;;;13.07;6.53;;;9.80;99.90;;;;;;5036029;28;20021;-86
2024/02/11 03:51:24;;;;;;;10.50;6.88;;;9.80;99.90;;;;;;5026544;28;20017;-86
2024/02/11 03:53:50;;;;;;;12.55;6.53;;;9.80;99.90;;;;;;5027498;28;20022;-88
2024/02/11 03:56:22;;;;;;;11.90;7.10;;;9.80;99.90;;;;;;5030598;28;20018;-87
2024/02/11 03:58:49;;;;;;;13.02;6.82;;;9.80;99.90;;;;;;5029406;28;20497;-86
2024/02/11 04:01:18;;;;;;;13.48;7.05;;;9.80;99.90;;;;;;5031625;28;20026;-86
2024/02/11 04:03:44;;;;;;;11.70;7.05;;;9.70;99.90;;;;;;5031893;28;20479;-87
2024/02/11 04:06:11;;;;;;;13.90;6.93;;;9.80;99.90;;;;;;5025983;28;20059;-86
2024/02/11 04:08:41;;;;;;;13.13;6.88;;;9.80;99.90;;;;;;5027959;28;20033;-87
2024/02/11 04:11:07;;;;;;;11.85;6.25;;;9.80;99.90;;;;;;5027647;28;20017;-87
2024/02/11 04:13:33;;;;;;;9.98;4.85;;;9.80;99.90;;;;;;5031907;28;20053;-87
2024/02/11 04:16:05;;;;;;;7.78;4.68;;;9.70;99.90;;;;;;5032286;28;20045;-86
2024/02/11 04:18:32;;;;;;;8.48;4.10;;;9.70;99.90;;;;;;5018191;28;20021;-87
2024/02/11 04:20:59;;;;;;;5.15;2.95;;;9.70;99.90;;;;;;5022381;28;20108;-87
2024/02/11 04:23:25;;;;;;;5.88;2.92;;;9.70;99.90;;;;;;5027603;28;20096;-87
2024/02/11 04:25:52;;;;;;;11.80;2.88;;;9.70;99.90;;;;;;5028465;28;20554;-86
2024/02/11 04:28:20;;;;;;;4.60;2.08;;;9.70;99.90;;;;;;5033241;28;20017;-86
2024/02/11 04:30:46;;;;;;;3.38;1.88;;;9.70;99.90;;;;;;5031506;28;20129;-86
2024/02/11 04:33:20;;;;;;;2.33;1.80;;;9.70;99.90;;;;;;5028756;28;20116;-87
2024/02/11 04:35:46;;;;;;;1.50;1.40;;;9.70;99.90;;;;;;5030942;28;20013;-86
2024/02/11 04:38:12;;;;;;;2.35;2.15;;;9.70;99.90;;;;;;5025387;28;20495;-88
2024/02/11 04:40:39;;;;;;;1.38;1.15;;;9.70;99.90;;;;;;5042974;28;20021;-87
2024/02/11 04:43:04;;;;;;;3.83;0.95;;;9.70;99.90;;;;;;5027466;28;20032;-86
2024/02/11 04:45:30;;;;;;;1.08;0.90;;;9.70;99.90;;;;;;5022980;28;20112;-87
2024/02/11 04:48:00;;;;;;;1.42;0.98;;;9.70;99.90;;;;;;5030970;28;20018;-87
2024/02/11 04:50:26;;;;;;;0.63;0.57;;;9.70;99.90;;;;;;5023205;28;20033;-87
2024/02/11 04:52:58;;;;;;;0.50;0.50;;;9.60;99.90;;;;;;5024611;28;20112;-87
2024/02/11 04:55:27;;;;;;;0.50;0.50;;;9.60;99.90;;;;;;5032424;28;20683;-87
2024/02/11 04:58:04;;;;;;;0.77;0.77;;;9.60;99.90;;;;;;5029891;28;20026;-88
2024/02/11 05:00:33;;;;;;;1.17;0.57;;;9.60;99.90;;;;;;5027085;28;20059;-86
2024/02/11 05:03:03;;;;;;;0.50;0.50;;;9.60;99.90;;;;;;5039791;28;20033;-87
2024/02/11 05:05:29;;;;;;;0.47;0.47;;;9.60;99.90;;;;;;5024579;28;20094;-86
2024/02/11 05:08:00;;;;;;;0.40;0.40;;;9.60;99.90;;;;;;5022287;28;20033;-86
2024/02/11 05:10:37;;;;;;;3.22;0.40;;;9.60;99.90;;;;;;5023123;28;20026;-86
2024/02/11 05:13:09;;;;;;;0.93;0.38;;;9.60;99.90;;;;;;5019455;28;20072;-86
2024/02/11 05:15:37;;;;;;;0.50;0.50;;;9.60;99.90;;;;;;5030919;28;20108;-86
2024/02/11 05:18:09;;;;;;;0.38;0.38;;;9.60;99.90;;;;;;5035702;28;20025;-88
2024/02/11 05:20:36;;;;;;;0.40;0.40;;;9.60;99.90;;;;;;5024018;28;20021;-87
2024/02/11 05:23:05;;;;;;;0.30;0.30;;;9.60;99.90;;;;;;5030366;28;20028;-86
2024/02/11 05:25:31;;;;;;;0.30;0.30;;;9.60;99.90;;;;;;5031732;28;20036;-86
2024/02/11 05:28:02;;;;;;;1.55;0.57;;;9.60;99.90;;;;;;5032722;28;20026;-87
2024/02/11 05:30:37;;;;;;;0.85;0.50;;;9.60;99.90;;;;;;5028083;28;20037;-87
2024/02/11 05:33:06;;;;;;;0.50;0.40;;;9.50;99.90;;;;;;5024887;28;20506;-87
2024/02/11 05:35:34;;;;;;;2.90;0.50;;;9.50;99.90;;;;;;5030119;28;20036;-87
2024/02/11 05:38:03;;;;;;;3.22;0.50;;;9.50;99.90;;;;;;5028758;28;20021;-86
2024/02/11 05:40:30;;;;;;;0.40;0.40;;;9.50;99.90;;;;;;5020709;28;20272;-86
2024/02/11 05:42:59;;;;;;;1.05;0.60;;;9.50;99.90;;;;;;5030626;28;20071;-87
2024/02/11 05:45:25;;;;;;;1.58;0.40;;;9.50;99.90;;;;;;5032519;28;20419;-87
2024/02/11 05:47:51;;;;;;;0.32;0.32;;;9.50;99.90;;;;;;5033125;28;20055;-86
2024/02/11 05:50:17;;;;;;;0.40;0.40;;;9.50;99.90;;;;;;5034470;28;20468;-86
2024/02/11 05:52:46;;;;;;;1.10;0.40;;;9.50;99.90;;;;;;5023812;28;20113;-87
2024/02/11 05:55:16;;;;;;;0.30;0.30;;;9.50;99.90;;;;;;5029838;28;20025;-87
2024/02/11 05:57:46;;;;;;;0.45;0.45;;;9.50;99.90;;;;;;5028456;28;20032;-86
2024/02/11 06:00:14;;;;;;;0.40;0.40;;;9.50;99.90;;;;;;5025726;28;20040;-87
2024/02/11 06:02:41;;;;;;;0.40;0.40;;;9.50;99.90;;;;;;5023670;28;20078;-86
2024/02/11 06:05:12;;;;;;;0.32;0.32;;;9.50;99.90;;;;;;5021744;28;20022;-86
2024/02/11 06:07:41;;;;;;;0.40;0.40;;;9.50;99.90;;;;;;5033872;28;20026;-87
2024/02/11 06:10:13;;;;;;;0.43;0.40;;;9.50;99.90;;;;;;5024978;28;20025;-87
2024/02/11 06:12:39;;;;;;;0.32;0.32;;;9.50;99.90;;;;;;5030818;28;20542;-86
2024/02/11 06:15:10;;;;;;;0.40;0.38;;;9.50;99.90;;;;;;5028894;28;20071;-86
2024/02/11 06:17:42;;;;;;;0.65;0.50;;;9.50;99.90;;;;;;5028961;28;20061;-86
2024/02/11 06:20:14;;;;;;;0.63;0.40;;;9.50;99.90;;;;;;5023631;28;20099;-87
2024/02/11 06:22:44;;;;;;;0.50;0.50;;;9.50;99.90;;;;;;5027936;28;20021;-87
2024/02/11 06:25:11;;;;;;;0.70;0.70;;;9.50;99.90;;;;;;5021936;28;20032;-86
2024/02/11 06:27:38;;;;;;;0.60;0.60;;;9.50;99.90;;;;;;5026406;28;20053;-86
2024/02/11 06:30:08;;;;;;;0.60;0.60;;;9.50;99.90;;;;;;5022120;28;20111;-88
2024/02/11 06:32:36;;;;;;;1.17;0.90;;;9.50;99.90;;;;;;5026044;28;20399;-87
2024/02/11 06:35:03;;;;;;;2.13;1.10;;;9.50;99.90;;;;;;5024089;28;20144;-86
2024/02/11 06:37:31;;;;;;;0.60;0.60;;;9.50;99.90;;;;;;5030090;28;20099;-87
2024/02/11 06:39:57;;;;;;;2.17;0.60;;;9.50;99.90;;;;;;5029187;28;20032;-87
2024/02/11 06:42:26;;;;;;;1.25;0.82;;;9.50;99.90;;;;;;5041737;28;20029;-87
2024/02/11 06:44:52;;;;;;;0.70;0.70;;;9.50;99.90;;;;;;5025158;28;20447;-87
2024/02/11 06:47:18;;;;;;;1.05;0.85;;;9.50;99.90;;;;;;5029525;28;20034;-87
2024/02/11 06:49:43;;;;;;;1.75;0.82;;;9.50;99.90;;;;;;5023873;28;20013;-87
2024/02/11 06:52:09;;;;;;;0.82;0.80;;;9.50;99.90;;;;;;5025816;28;20484;-86
2024/02/11 06:54:37;;;;;;;0.55;0.55;;;9.50;99.90;;;;;;5035530;28;20431;-86
2024/02/11 06:57:03;;;;;;;0.60;0.60;;;9.50;99.90;;;;;;5028292;28;20021;-87
2024/02/11 06:59:29;;;;;;;1.00;0.73;;;9.50;99.90;;;;;;5035477;28;20014;-86
2024/02/11 07:01:56;;;;;;;0.50;0.50;;;9.50;99.90;;;;;;5036191;28;20028;-86
2024/02/11 07:04:23;;;;;;;0.68;0.68;;;9.50;99.90;;;;;;5034094;28;20022;-88
2024/02/11 07:06:48;;;;;;;0.60;0.60;;;9.50;99.90;;;;;;5029739;28;20480;-86
2024/02/11 07:09:17;;;;;;;1.40;1.30;;;9.50;99.90;;;;;;5041808;28;20074;-87
2024/02/11 07:11:43;;;;;;;2.85;1.15;;;9.50;99.90;;;;;;5036848;28;20037;-87
2024/02/11 07:14:08;;;;;;;1.00;1.00;;;9.40;99.90;;;;;;5023605;28;20076;-86
2024/02/11 07:16:37;;;;;;;1.50;1.35;;;9.40;99.90;;;;;;5026864;28;20432;-88
2024/02/11 07:19:08;;;;;;;1.73;1.20;;;9.40;99.90;;;;;;5031508;28;20028;-86
2024/02/11 07:21:36;;;;;;;1.50;1.40;;;9.50;99.90;;;;;;5032404;28;20729;-87
2024/02/11 07:24:06;;;;;;;1.67;1.50;;;9.40;99.90;;;;;;5033920;28;20471;-87
2024/02/11 07:26:32;;;;;;;1.80;1.60;;;9.40;99.90;;;;;;5030613;28;20727;-87
2024/02/11 07:28:59;;;;;;;1.63;1.40;;;9.40;99.90;;;;;;5034940;28;20029;-87
2024/02/11 07:31:25;;;;;;;1.55;1.45;;;9.40;99.90;;;;;;5034315;28;20026;-87
2024/02/11 07:33:51;;;;;;;1.60;1.50;;;9.40;99.90;;;;;;5029426;28;20076;-87
2024/02/11 07:36:18;;;;;;;4.63;1.77;;;9.40;99.90;;;;;;5033237;28;20013;-88
2024/02/11 07:38:44;;;;;;;1.50;1.40;;;9.40;99.90;;;;;;5032189;28;20030;-86
2024/02/11 07:41:11;;;;;;;2.67;1.65;;;9.40;99.90;;;;;;5030652;28;20511;-86
2024/02/11 07:43:37;;;;;;;1.40;1.30;;;9.40;99.90;;;;;;5022032;28;20017;-87
2024/02/11 07:46:03;;;;;;;1.75;1.48;;;9.40;99.90;;;;;;5030041;28;20487;-88
2024/02/11 07:48:30;;;;;;;2.83;1.30;;;9.40;99.90;;;;;;5026473;28;20373;-86
2024/02/11 07:50:56;;;;;;;1.40;1.30;;;9.40;99.90;;;;;;5034559;28;20376;-86
2024/02/11 07:53:21;;;;;;;1.52;1.42;;;9.40;99.90;;;;;;5030908;28;20025;-87
2024/02/11 07:55:47;;;;;;;1.58;1.48;;;9.40;99.90;;;;;;5037724;28;20425;-87
2024/02/11 07:58:13;;;;;;;1.45;1.35;;;9.40;99.90;;;;;;5025432;28;20021;-87
2024/02/11 08:00:39;;;;;;;2.55;1.38;;;9.40;99.90;;;;;;5030849;28;20096;-87
2024/02/11 08:03:07;;;;;;;1.75;1.40;;;9.40;99.90;;;;;;5024320;28;20108;-87
2024/02/11 08:05:34;;;;;;;1.25;1.15;;;9.40;99.90;;;;;;5026581;28;20029;-87
2024/02/11 08:07:59;;;;;;;1.13;1.00;;;9.40;99.90;;;;;;5055024;28;20028;-86
2024/02/11 08:10:25;;;;;;;1.77;1.38;;;9.40;99.90;;;;;;5028676;28;20093;-86
2024/02/11 08:12:54;;;;;;;2.40;1.35;;;9.40;99.90;;;;;;5023992;28;20017;-87
2024/02/11 08:15:20;;;;;;;1.77;1.30;;;9.40;99.90;;;;;;5038968;28;20017;-86
2024/02/11 08:17:46;;;;;;;1.50;1.30;;;9.40;99.90;;;;;;5027876;28;20032;-87
2024/02/11 08:20:19;;;;;;;1.30;1.20;;;9.40;99.90;;;;;;5031681;28;20499;-87
2024/02/11 08:22:45;;;;;;;1.40;1.20;;;9.40;99.90;;;;;;5028628;28;20595;-87
2024/02/11 08:25:12;;;;;;;1.95;1.55;;;9.40;99.90;;;;;;5033773;28;20030;-86
2024/02/11 08:27:38;;;;;;;3.58;1.60;;;9.40;99.90;;;;;;5031000;28;20120;-87
2024/02/11 08:30:06;;;;;;;2.50;1.50;;;9.40;99.90;;;;;;5035580;28;20443;-87
2024/02/11 08:32:31;;;;;;;5.25;1.30;;;9.40;99.90;;;;;;5024537;28;20029;-87
2024/02/11 08:34:57;;;;;;;1.80;1.70;;;9.40;99.90;;;;;;5029876;28;20494;-86
2024/02/11 08:37:23;;;;;;;2.35;1.77;;;9.40;99.90;;;;;;5032642;28;20032;-87
2024/02/11 08:39:50;;;;;;;4.28;1.45;;;9.40;99.90;;;;;;5026806;28;20029;-87
2024/02/11 08:42:15;;;;;;;1.75;1.65;;;9.40;99.90;;;;;;5023992;28;20626;-86
2024/02/11 08:44:41;;;;;;;3.75;1.98;;;9.40;99.90;;;;;;5025877;28;20021;-87
2024/02/11 08:47:08;;;;;;;2.78;2.33;;;9.40;99.90;;;;;;5023042;28;20133;-86
2024/02/11 08:49:34;;;;;;;2.65;1.92;;;9.40;99.90;;;;;;5030653;28;20141;-86
2024/02/11 08:52:00;;;;;;;3.17;2.15;;;9.40;99.90;;;;;;5030416;28;20028;-87
2024/02/11 08:54:26;;;;;;;2.90;2.28;;;9.40;99.90;;;;;;5032039;28;20025;-87
2024/02/11 08:56:52;;;;;;;2.40;2.20;;;9.40;99.90;;;;;;5025731;28;20029;-87
2024/02/11 08:59:17;;;;;;;2.95;2.15;;;9.40;99.90;;;;;;5026930;28;20486;-86
2024/02/11 09:01:53;;;;;;;3.20;2.38;;;9.40;99.90;;;;;;5025019;28;20479;-87
2024/02/11 09:04:20;;;;;;;4.25;2.72;;;9.40;99.90;;;;;;5033784;28;20214;-86
2024/02/11 09:06:46;;;;;;;3.33;2.63;;;9.40;99.90;;;;;;5025812;28;20017;-88
2024/02/11 09:09:12;;;;;;;5.72;3.30;;;9.50;99.90;;;;;;5027013;28;20204;-87
2024/02/11 09:11:40;;;;;;;3.70;2.75;;;9.40;99.90;;;;;;5029734;28;20067;-87
2024/02/11 09:14:06;;;;;;;4.68;3.10;;;9.50;99.90;;;;;;5029022;28;20036;-87
2024/02/11 09:16:31;;;;;;;3.92;3.13;;;9.50;99.90;;;;;;5026755;28;20467;-87
2024/02/11 09:18:57;;;;;;;5.38;3.35;;;9.50;99.90;;;;;;5043714;28;20052;-87
2024/02/11 09:21:23;;;;;;;6.35;3.42;;;9.50;99.90;;;;;;5025594;28;20022;-87
2024/02/11 09:23:49;;;;;;;4.47;3.00;;;9.50;99.90;;;;;;5020577;28;21160;-87
2024/02/11 09:26:14;;;;;;;6.15;3.90;;;9.50;99.90;;;;;;5016678;28;20034;-87
2024/02/11 09:28:42;;;;;;;4.70;3.50;;;9.40;99.90;;;;;;5013074;28;20026;-87
2024/02/11 09:31:09;;;;;;;5.78;4.18;;;9.50;99.90;;;;;;5019745;28;20168;-86
2024/02/11 09:33:36;;;;;;;6.72;4.03;;;9.50;99.90;;;;;;5033182;28;20030;-86
2024/02/11 09:36:03;;;;;;;6.47;4.50;;;9.40;99.90;;;;;;5025262;28;20024;-88
2024/02/11 09:38:29;;;;;;;6.90;3.85;;;9.50;99.90;;;;;;5028812;28;20510;-86
2024/02/11 09:40:54;;;;;;;6.95;4.30;;;9.50;99.90;;;;;;5026203;28;20037;-87
2024/02/11 09:43:22;;;;;;;7.13;4.57;;;9.50;99.90;;;;;;5024375;28;20040;-87
2024/02/11 09:45:50;;;;;;;6.05;3.95;;;9.50;99.90;;;;;;5029149;28;20025;-86
2024/02/11 09:48:17;;;;;;;8.57;4.70;;;9.50;99.90;;;;;;5030298;28;20026;-87
2024/02/11 09:50:44;;;;;;;9.70;4.30;;;9.50;99.90;;;;;;5031144;28;20049;-87
2024/02/11 09:53:14;;;;;;;7.03;4.47;;;9.50;99.90;;;;;;5033463;28;20018;-87
2024/02/11 09:55:42;;;;;;;9.57;4.47;;;9.50;99.90;;;;;;5028459;28;20021;-86
2024/02/11 09:58:08;;;;;;;6.20;4.57;;;9.60;99.90;;;;;;5038050;28;20049;-87
2024/02/11 10:00:34;;;;;;;6.40;4.60;;;9.60;99.90;;;;;;5022069;28;20021;-86
2024/02/11 10:03:02;;;;;;;6.57;4.88;;;9.60;99.90;;;;;;5033700;28;20032;-87
2024/02/11 10:05:31;;;;;;;9.10;4.70;;;9.60;99.90;;;;;;5022259;28;20103;-87
2024/02/11 10:07:58;;;;;;;6.70;4.63;;;9.60;99.90;;;;;;5030454;28;20021;-87
2024/02/11 10:10:25;;;;;;;8.15;4.82;;;9.60;99.90;;;;;;5022371;28;20031;-86
2024/02/11 10:12:51;;;;;;;8.38;5.03;;;9.60;99.90;;;;;;5029450;28;20067;-88
2024/02/11 10:15:19;;;;;;;9.02;4.75;;;9.60;99.90;;;;;;5020638;28;20022;-89
2024/02/11 10:17:46;;;;;;;8.35;5.18;;;9.60;99.90;;;;;;5025571;28;20010;-89
2024/02/11 10:20:13;;;;;;;9.43;4.97;;;9.60;99.90;;;;;;5029608;28;20480;-86
2024/02/11 10:22:39;;;;;;;9.68;5.00;;;9.70;99.90;;;;;;5030356;28;20021;-88
2024/02/11 10:25:09;;;;;;;11.57;5.50;;;9.70;99.90;;;;;;5035269;28;20013;-87
2024/02/11 10:27:36;;;;;;;8.30;4.90;;;9.70;99.90;;;;;;5024289;28;20159;-87
2024/02/11 10:30:05;;;;;;;7.30;4.78;;;9.70;99.90;;;;;;5030855;28;20022;-89
2024/02/11 10:32:34;;;;;;;9.85;5.55;;;9.70;99.90;;;;;;5024880;28;20017;-88
2024/02/11 10:35:02;;;;;;;18.53;6.10;;;9.70;99.90;;;;;;5031338;28;20438;-87
2024/02/11 10:37:28;;;;;;;11.52;5.15;;;9.70;99.90;;;;;;5053707;28;20260;-88
2024/02/11 10:39:55;;;;;;;9.43;5.22;;;9.70;99.90;;;;;;5030179;28;20037;-86
2024/02/11 10:42:21;;;;;;;10.07;5.38;;;9.70;99.90;;;;;;5035566;28;20023;-88
2024/02/11 10:44:49;;;;;;;14.32;5.72;;;9.70;99.90;;;;;;5033348;28;20032;-87
2024/02/11 10:47:14;;;;;;;9.25;5.55;;;9.70;99.90;;;;;;5030637;28;20021;-86
2024/02/11 10:49:40;;;;;;;11.05;5.18;;;9.70;99.90;;;;;;5036096;28;20643;-87
2024/02/11 10:52:09;;;;;;;8.88;5.32;;;9.70;99.90;;;;;;5029717;28;20024;-87
2024/02/11 10:54:42;;;;;;;11.13;5.18;;;9.80;99.90;;;;;;5032534;28;20014;-87
2024/02/11 10:57:19;;;;;;;10.25;5.00;;;9.70;99.90;;;;;;5038435;28;20025;-88
2024/02/11 10:59:58;;;;;;;11.35;4.88;;;9.70;99.90;;;;;;5035403;28;20018;-89
2024/02/11 11:02:27;;;;;;;8.60;4.88;;;9.80;99.90;;;;;;5036868;28;20026;-87
2024/02/11 11:04:56;;;;;;;8.25;4.85;;;9.70;99.90;;;;;;5041476;28;20036;-87
2024/02/11 11:07:23;;;;;;;8.07;4.47;;;9.70;99.90;;;;;;5033435;28;20120;-90
2024/02/11 11:09:48;;;;;;;10.00;4.85;;;9.70;99.90;;;;;;5023010;28;20018;-87
2024/02/11 11:12:16;;;;;;;12.23;5.18;;;9.70;99.90;;;;;;5031092;28;20371;-88
2024/02/11 11:14:47;;;;;;;8.35;4.80;;;9.70;99.90;;;;;;5033429;28;20026;-88
2024/02/11 11:17:20;;;;;;;;;;;9.70;99.90;;;;;;5042772;28;20025;-87
2024/02/11 11:19:48;;;;;;;8.35;4.55;;;9.60;99.90;;;;;;5034079;28;19951;-87
2024/02/11 11:22:14;;;;;;;9.52;4.82;;;9.60;99.90;;;;;;5034980;28;20072;-88
2024/02/11 11:24:39;;;;;;;7.40;4.47;;;9.60;99.90;;;;;;5029397;28;20411;-88
2024/02/11 11:27:05;;;;;;;6.20;4.55;;;9.60;99.90;;;;;;5028801;28;20025;-87
2024/02/11 11:29:32;;;;;;;15.32;4.22;;;9.70;99.90;;;;;;5036222;28;20404;-89
2024/02/11 11:32:01;;;;;;;6.00;3.90;;;9.70;99.90;;;;;;5034713;28;20024;-87
2024/02/11 11:34:28;;;;;;;7.20;4.20;;;9.60;99.90;;;;;;5026324;28;20052;-87
2024/02/11 11:36:53;;;;;;;8.60;4.13;;;9.70;99.90;;;;;;5036714;28;20043;-87
2024/02/11 11:39:19;;;;;;;7.32;4.18;;;9.70;99.90;;;;;;5027273;28;20019;-89
2024/02/11 11:41:45;;;;;;;6.75;4.32;;;9.70;99.90;;;;;;5029679;28;20025;-87
2024/02/11 11:44:12;;;;;;;7.90;3.97;;;9.70;99.90;;;;;;5024552;28;20025;-87
2024/02/11 11:46:37;;;;;;;5.40;3.67;;;9.70;99.90;;;;;;5029609;28;20450;-88
2024/02/11 11:49:03;;;;;;;10.25;4.30;;;9.70;99.90;;;;;;5032176;28;20025;-87
2024/02/11 11:51:30;;;;;;;8.55;4.13;;;9.60;99.90;;;;;;5028646;28;20025;-85
2024/02/11 11:53:56;;;;;;;6.15;3.40;;;9.60;99.90;;;;;;5018690;28;20026;-86
2024/02/11 11:56:23;;;;;;;5.45;3.72;;;9.60;99.90;;;;;;5027659;28;20032;-87
2024/02/11 11:58:51;;;;;;;5.15;3.40;;;9.50;99.90;;;;;;5023109;28;20088;-86
2024/02/11 12:01:19;;;;;;;6.15;3.70;;;9.60;99.90;;;;;;5034478;28;20037;-87
2024/02/11 12:03:44;;;;;;;5.53;3.53;;;9.60;99.90;;;;;;5032947;28;20075;-87
2024/02/11 12:06:11;;;;;;;4.40;3.38;;;9.60;99.90;;;;;;5031634;28;20029;-87
2024/02/11 12:08:37;;;;;;;7.40;3.65;;;9.60;99.90;;;;;;5026450;28;20018;-86
2024/02/11 12:11:07;;;;;;;4.53;3.17;;;9.60;99.90;;;;;;5030609;28;20399;-87
2024/02/11 12:13:35;;;;;;;5.30;3.42;;;9.60;99.90;;;;;;5028757;28;20026;-87
2024/02/11 12:16:03;;;;;;;7.20;3.47;;;9.60;99.90;;;;;;5024836;28;20017;-87
2024/02/11 12:18:30;;;;;;;4.53;3.20;;;9.60;99.90;;;;;;5028332;28;20052;-86
2024/02/11 12:20:57;;;;;;;5.43;3.38;;;9.70;99.90;;;;;;5031213;28;20025;-87
2024/02/11 12:23:23;;;;;;;9.23;3.38;;;9.70;99.90;;;;;;5021668;28;20033;-87
2024/02/11 12:26:06;;;;;;;7.18;3.50;;;9.70;99.90;;;;;;5029461;28;20029;-86
2024/02/11 12:28:33;;;;;;;5.25;3.60;;;9.70;99.90;;;;;;5029362;28;20029;-87
2024/02/11 12:31:13;;;;;;;6.63;3.20;;;9.80;99.90;;;;;;5031529;28;20142;-87
2024/02/11 12:33:40;;;;;;;4.85;3.33;;;9.80;99.90;;;;;;5030470;28;20026;-86
2024/02/11 12:36:12;;;;;;;4.28;2.92;;;9.80;99.90;;;;;;5033028;28;20036;-87
2024/02/11 12:38:41;;;;;;;7.20;3.88;;;9.90;99.90;;;;;;5033771;28;20025;-87
2024/02/11 12:41:08;;;;;;;4.88;3.47;;;9.90;99.90;;;;;;5029309;28;20017;-88
2024/02/11 12:43:37;;;;;;;5.35;3.00;;;9.90;99.90;;;;;;5031096;28;20108;-87
2024/02/11 12:46:03;;;;;;;4.88;3.20;;;9.90;99.90;;;;;;5032223;28;20082;-87
2024/02/11 12:48:29;;;;;;;10.10;3.40;;;9.90;99.90;;;;;;5027791;28;20062;-87
2024/02/11 12:50:55;;;;;;;6.35;3.70;;;9.90;99.90;;;;;;5020715;28;20029;-87
2024/02/11 12:53:21;;;;;;;4.70;3.05;;;9.90;99.90;;;;;;5030766;28;20018;-87